Hamburg, New York
Current Conditions -  °F | °C
As of 8:54 PM on Wednesday 26 Nov 2014 (Local Time) from KBUF Reporting Station
Light Snow Light Snow  
Wind Chill: 22°   Ceiling: 2900
Heat Index: 30°   Visibility: 9mi
Dew Point: 25°   Wind: 9mph
Humidity: 82%   Direction: 50°NE
Pressure: 30.05"   Gusts: NA
Location:  42.72°N, 78.83°W
Report Text: KBUF 270154Z 05008KT 9SM -SN FEW015 BKN029 OVC040 M01/M04 A3005 RMK AO2 SLP184 PCPN VRY LGT P0000 T10111039
Loading
Personal Weather Stations






























Interactive Weather Map New forecast layout! Learn more

10-Day Weather Forecast

Advertisements
Track Severe Weather on mobile